Weather History for KCDA - June, 2012

Change the Weather History Date:

Sunday, June 17, 2012

  Actual Average (K1V4) Record (K1V4)
Temperature  
Mean Temperature 64 °F 66 °F  
Max Temperature 76 °F 78 °F 96 °F (1994)
Min Temperature 53 °F 55 °F 37 °F (1925)
Cooling Degree Days 0 3  
Month to date cooling degree days 37  
Year to date cooling degree days 55  
Since 1 June cooling degree days 37  
Growing Degree Days 14 (Base 50)    
Moisture  
Dew Point 51 °F    
Average Humidity 64    
Maximum Humidity 86    
Minimum Humidity 44    
Precipitation  
Precipitation 0.00 in 0.13 in 1.46 in (1945)
Month to date precipitation 2.25  
Year to date precipitation 15.66  
Sea Level Pressure  
Sea Level Pressure 30.17 in    
Wind  
Wind Speed 7 mph (SSE)    
Max Wind Speed 13 mph    
Max Gust Speed 17 mph    
Visibility 10 miles    
Events      
T = Trace of Precipitation, MM = Missing Value Source: NWS Daily Summary

Daily Weather History Graph

Daily Weather History Graph

Search for Another Location

Airport or City:

Trip Planner

Search our weather history database for the weather conditions in past years. The results will help you decide how hot, cold, wet, or windy it might be!

Date:

Astronomy

Jun. 17, 2012 Rise Set
Actual Time 5:02 AM EDT 8:35 PM EDT
Civil Twilight 4:25 AM EDT 9:12 PM EDT
Nautical Twilight 3:36 AM EDT 10:01 PM EDT
Astronomical Twilight 2:33 AM EDT 11:05 PM EDT
Moon 3:32 AM EDT (6/17) 6:59 PM EDT (6/17)
Length of Visible Light 16h 47m
Length of Day
15h 33m
Waning Crescent, 4% of the Moon is Illuminated
Jun 17
Waning Crescent
Jun 19
New
Jun 26
First Quarter
Jul 3
Full
Jul 10
Last Quarter

Hourly Weather History & Observations

Time (EDT) Temp. Dew Point Humidity Pressure Visibility Wind Dir Wind Speed Gust Speed Precip Events Conditions
12:35 AM 58.6 °F 51.8 °F 78% 30.26 in 10.0 mi SSE 5.8 mph - N/A   Clear
12:55 AM 57.7 °F 51.8 °F 81% 30.26 in 10.0 mi South 8.1 mph - N/A   Clear
1:15 AM 57.7 °F 51.6 °F 80% 30.26 in 10.0 mi South 6.9 mph - N/A   Clear
1:35 AM 56.7 °F 51.3 °F 82% 30.26 in 10.0 mi South 8.1 mph - N/A   Clear
1:55 AM 56.3 °F 51.3 °F 83% 30.26 in 10.0 mi SSE 6.9 mph - N/A   Clear
2:15 AM 55.4 °F 50.9 °F 85% 30.26 in 10.0 mi South 5.8 mph - N/A   Clear
2:35 AM 55.2 °F 50.7 °F 85% 30.26 in 10.0 mi SSE 6.9 mph - N/A   Clear
2:55 AM 54.9 °F 50.5 °F 85% 30.26 in 10.0 mi SSE 5.8 mph - N/A   Scattered Clouds
3:15 AM 54.9 °F 50.7 °F 86% 30.25 in 10.0 mi SSE 4.6 mph - N/A   Overcast
3:35 AM 55.4 °F 50.9 °F 85% 30.25 in 10.0 mi South 5.8 mph - N/A   Overcast
3:55 AM 55.4 °F 50.9 °F 85% 30.25 in 10.0 mi SSE 3.5 mph - N/A   Overcast
4:15 AM 55.4 °F 50.9 °F 85% 30.25 in 10.0 mi SSE 5.8 mph - N/A   Overcast
4:35 AM 54.9 °F 50.2 °F 84% 30.25 in 10.0 mi SSE 3.5 mph - N/A   Overcast
4:55 AM 54.9 °F 50.0 °F 84% 30.24 in 10.0 mi South 5.8 mph - N/A   Overcast
5:15 AM 54.9 °F 49.6 °F 83% 30.25 in 10.0 mi SSE 5.8 mph - N/A   Overcast
5:35 AM 54.7 °F 49.5 °F 83% 30.24 in 10.0 mi SSE 5.8 mph - N/A   Overcast
5:55 AM 54.5 °F 49.1 °F 82% 30.24 in 10.0 mi SSE 4.6 mph - N/A   Overcast
6:15 AM 53.6 °F 48.4 °F 82% 30.24 in 10.0 mi SSE 3.5 mph - N/A   Mostly Cloudy
6:35 AM 53.2 °F 48.2 °F 83% 30.25 in 10.0 mi SE 3.5 mph - N/A   Clear
6:55 AM 54.1 °F 47.7 °F 79% 30.24 in 10.0 mi SSE 6.9 mph - N/A   Clear
7:15 AM 55.4 °F 47.7 °F 75% 30.24 in 10.0 mi SSE 6.9 mph - N/A   Clear
7:35 AM 55.4 °F 47.1 °F 74% 30.24 in 10.0 mi SSE 4.6 mph - N/A   Clear
7:55 AM 57.7 °F 47.1 °F 68% 30.25 in 10.0 mi SSE 6.9 mph - N/A   Clear
8:15 AM 58.5 °F 47.3 °F 66% 30.25 in 10.0 mi SE 8.1 mph - N/A   Clear
8:35 AM 60.3 °F 47.5 °F 63% 30.25 in 10.0 mi SSE 6.9 mph - N/A   Clear
8:55 AM 60.4 °F 47.5 °F 62% 30.24 in 10.0 mi SSE 8.1 mph - N/A   Clear
9:15 AM 61.3 °F 47.7 °F 61% 30.23 in 10.0 mi SSE 8.1 mph - N/A   Scattered Clouds
9:35 AM 61.9 °F 47.1 °F 58% 30.23 in 10.0 mi SSE 9.2 mph - N/A   Mostly Cloudy
9:55 AM 63.7 °F 47.7 °F 56% 30.22 in 10.0 mi South 12.7 mph 17.3 mph N/A   Mostly Cloudy
10:15 AM 64.2 °F 47.3 °F 54% 30.22 in 10.0 mi SSE 12.7 mph 16.1 mph N/A   Mostly Cloudy
10:35 AM 65.3 °F 48.6 °F 55% 30.21 in 10.0 mi SSE 8.1 mph - N/A   Scattered Clouds
11:15 AM 67.3 °F 48.9 °F 52% 30.21 in 10.0 mi SSE 10.4 mph 17.3 mph N/A   Clear
11:35 AM 68.7 °F 50.0 °F 51% 30.20 in 10.0 mi SE 10.4 mph - N/A   Clear
11:55 AM 68.9 °F 49.1 °F 49% 30.20 in 10.0 mi South 9.2 mph - N/A   Clear
12:15 PM 70.3 °F 50.2 °F 49% 30.19 in 10.0 mi South 6.9 mph - N/A   Clear
12:35 PM 70.7 °F 50.4 °F 48% 30.18 in 10.0 mi South 6.9 mph - N/A   Clear
12:55 PM 71.1 °F 50.7 °F 49% 30.17 in 10.0 mi South 8.1 mph - N/A   Clear
1:15 PM 71.6 °F 51.6 °F 49% 30.16 in 10.0 mi SE 5.8 mph - N/A   Clear
1:35 PM 72.7 °F 51.6 °F 47% 30.15 in 10.0 mi South 6.9 mph - N/A   Clear
1:55 PM 73.8 °F 52.9 °F 48% 30.14 in 10.0 mi SE 8.1 mph - N/A   Clear
2:15 PM 73.8 °F 52.3 °F 47% 30.14 in 10.0 mi SSE 8.1 mph - N/A   Clear
2:35 PM 74.3 °F 52.3 °F 46% 30.13 in 10.0 mi SSE 9.2 mph - N/A   Clear
2:55 PM 74.5 °F 52.0 °F 45% 30.12 in 10.0 mi SSE 9.2 mph 16.1 mph N/A   Clear
3:15 PM 75.6 °F 52.9 °F 45% 30.11 in 10.0 mi SE 9.2 mph - N/A   Clear
3:35 PM 75.6 °F 53.4 °F 46% 30.11 in 10.0 mi SSE 8.1 mph - N/A   Clear
3:55 PM 75.6 °F 52.2 °F 44% 30.10 in 10.0 mi SSE 9.2 mph - N/A   Clear
4:15 PM 75.6 °F 52.3 °F 44% 30.09 in 10.0 mi SE 10.4 mph - N/A   Clear
4:35 PM 76.3 °F 53.8 °F 45% 30.09 in 10.0 mi SSE 12.7 mph - N/A   Clear
4:55 PM 75.6 °F 52.2 °F 44% 30.08 in 10.0 mi South 6.9 mph - N/A   Clear
5:15 PM 75.6 °F 52.3 °F 44% 30.08 in 10.0 mi SSE 10.4 mph 17.3 mph N/A   Clear
5:35 PM 74.7 °F 52.0 °F 45% 30.07 in 10.0 mi South 12.7 mph 17.3 mph N/A   Clear
5:55 PM 73.9 °F 50.5 °F 44% 30.07 in 10.0 mi South 11.5 mph - N/A   Clear
6:15 PM 73.8 °F 52.3 °F 47% 30.07 in 10.0 mi South 11.5 mph 16.1 mph N/A   Clear
6:35 PM 72.9 °F 52.2 °F 48% 30.07 in 10.0 mi SSE 9.2 mph - N/A   Clear
6:55 PM 71.8 °F 52.3 °F 50% 30.06 in 10.0 mi South 6.9 mph - N/A   Clear
7:15 PM 71.2 °F 52.2 °F 51% 30.06 in 10.0 mi South 8.1 mph - N/A   Clear
7:35 PM 70.3 °F 52.0 °F 52% 30.07 in 10.0 mi South 5.8 mph - N/A   Clear
7:55 PM 68.5 °F 52.2 °F 56% 30.07 in 10.0 mi SSW 5.8 mph - N/A   Clear
8:15 PM 67.5 °F 52.2 °F 58% 30.08 in 10.0 mi South 5.8 mph - N/A   Clear
8:35 PM 66.7 °F 52.2 °F 59% 30.08 in 10.0 mi South 5.8 mph - N/A   Clear
8:55 PM 65.1 °F 52.2 °F 63% 30.08 in 10.0 mi South 5.8 mph - N/A   Clear
9:15 PM 63.5 °F 52.2 °F 67% 30.09 in 10.0 mi South 3.5 mph - N/A   Clear
9:35 PM 63.5 °F 52.3 °F 67% 30.11 in 10.0 mi South 4.6 mph - N/A   Clear
9:55 PM 63.5 °F 52.7 °F 68% 30.11 in 10.0 mi South 5.8 mph - N/A   Clear
10:15 PM 62.4 °F 52.2 °F 69% 30.11 in 10.0 mi South 6.9 mph - N/A   Clear
10:35 PM 61.7 °F 51.8 °F 70% 30.12 in 10.0 mi SSE 5.8 mph - N/A   Clear
10:55 PM 61.3 °F 52.0 °F 71% 30.12 in 10.0 mi SSE 5.8 mph - N/A   Clear
11:15 PM 60.8 °F 51.8 °F 72% 30.12 in 10.0 mi SSE 4.6 mph - N/A   Clear
11:35 PM 59.9 °F 51.8 °F 75% 30.13 in 10.0 mi SSE 5.8 mph - N/A   Clear
11:55 PM 59.5 °F 51.6 °F 75% 30.13 in 10.0 mi South 6.9 mph - N/A   Clear